Time;durP1;ratioP1;P1;durP2;ratioP2;P2;SDS_P1;SDS_P2;PMS_P1;PMS_P2;Temp;Humidity;BMP_temperature;BMP_pressure;BME280_temperature;BME280_humidity;BME280_pressure;Samples;Min_cycle;Max_cycle;Signal;HPM_P1;HPM_P2
2021/09/16 00:01:15;;;;;;;7.85;5.22;;;;;;;;;;5055019;28;20072;-70
2021/09/16 00:03:41;;;;;;;9.07;5.40;;;;;;;;;;5055006;28;20056;-70
2021/09/16 00:06:08;;;;;;;7.07;5.13;;;;;;;;;;5049724;28;20060;-71
2021/09/16 00:08:34;;;;;;;6.75;4.95;;;;;;;;;;5054110;28;20053;-70
2021/09/16 00:11:01;;;;;;;7.75;4.60;;;;;;;;;;5054849;28;20044;-70
2021/09/16 00:13:29;;;;;;;11.38;5.30;;;;;;;;;;5054617;28;20041;-70
2021/09/16 00:15:55;;;;;;;6.57;4.85;;;;;;;;;;5053513;28;20052;-70
2021/09/16 00:18:22;;;;;;;7.15;4.63;;;;;;;;;;5053982;28;20045;-70
2021/09/16 00:20:48;;;;;;;8.23;5.22;;;;;;;;;;5054646;28;20124;-70
2021/09/16 00:23:15;;;;;;;11.43;5.70;;;;;;;;;;5054310;28;20052;-70
2021/09/16 00:25:41;;;;;;;8.90;5.30;;;;;;;;;;5052584;28;20491;-70
2021/09/16 00:28:08;;;;;;;8.15;4.95;;;;;;;;;;5051936;28;20057;-70
2021/09/16 00:30:36;;;;;;;7.78;4.90;;;;;;;;;;5054233;28;20056;-70
2021/09/16 00:33:02;;;;;;;8.63;5.47;;;;;;;;;;5054242;28;20483;-70
2021/09/16 00:35:29;;;;;;;8.52;4.60;;;;;;;;;;5053306;28;20053;-70
2021/09/16 00:37:56;;;;;;;9.77;5.40;;;;;;;;;;5052127;28;20037;-69
2021/09/16 00:40:23;;;;;;;6.32;3.65;;;;;;;;;;5054157;28;20049;-71
2021/09/16 00:42:49;;;;;;;7.22;4.97;;;;;;;;;;5054021;28;20045;-70
2021/09/16 00:45:16;;;;;;;8.93;5.15;;;;;;;;;;5052315;28;20417;-71
2021/09/16 00:47:46;;;;;;;7.57;5.03;;;;;;;;;;5048323;28;20399;-70
2021/09/16 00:50:13;;;;;;;8.15;4.80;;;;;;;;;;5054201;28;20119;-70
2021/09/16 00:52:41;;;;;;;8.45;5.18;;;;;;;;;;5054109;28;20049;-70
2021/09/16 00:55:08;;;;;;;10.70;5.40;;;;;;;;;;5051380;28;20505;-70
2021/09/16 00:57:35;;;;;;;9.25;4.53;;;;;;;;;;5053468;28;20060;-71
2021/09/16 01:00:04;;;;;;;8.70;4.80;;;;;;;;;;5054027;28;20131;-70
2021/09/16 01:02:31;;;;;;;7.93;4.40;;;;;;;;;;5053892;28;20757;-70
2021/09/16 01:04:59;;;;;;;8.95;5.88;;;;;;;;;;5050984;28;20057;-70
2021/09/16 01:07:25;;;;;;;10.73;5.88;;;;;;;;;;5049891;28;20048;-70
2021/09/16 01:09:52;;;;;;;7.35;5.07;;;;;;;;;;5053771;28;20053;-70
2021/09/16 01:12:18;;;;;;;7.13;4.22;;;;;;;;;;5053814;28;20052;-70
2021/09/16 01:14:46;;;;;;;7.53;4.70;;;;;;;;;;5053446;28;20059;-70
2021/09/16 01:17:12;;;;;;;8.50;4.28;;;;;;;;;;5051001;28;20045;-71
2021/09/16 01:19:39;;;;;;;10.05;5.20;;;;;;;;;;5053775;28;20052;-70
2021/09/16 01:22:07;;;;;;;7.82;4.28;;;;;;;;;;5053917;28;20398;-70
2021/09/16 01:24:35;;;;;;;7.57;4.40;;;;;;;;;;5053496;28;20045;-70
2021/09/16 01:27:01;;;;;;;10.70;5.25;;;;;;;;;;5050522;28;20047;-70
2021/09/16 01:29:28;;;;;;;9.52;4.80;;;;;;;;;;5053555;28;20052;-70
2021/09/16 01:31:54;;;;;;;8.77;5.35;;;;;;;;;;5052856;28;20396;-70
2021/09/16 01:34:20;;;;;;;11.18;5.38;;;;;;;;;;5053889;28;20051;-71
2021/09/16 01:36:48;;;;;;;9.27;5.00;;;;;;;;;;5051373;28;20053;-70
2021/09/16 01:39:16;;;;;;;7.63;4.20;;;;;;;;;;5053352;28;20057;-71
2021/09/16 01:41:44;;;;;;;7.15;4.47;;;;;;;;;;5053158;28;20048;-70
2021/09/16 01:44:10;;;;;;;7.60;5.15;;;;;;;;;;5053138;28;20049;-70
2021/09/16 01:46:37;;;;;;;8.10;4.20;;;;;;;;;;5048191;28;20049;-70
2021/09/16 01:49:04;;;;;;;7.40;4.57;;;;;;;;;;5051427;28;20619;-70
2021/09/16 01:51:30;;;;;;;8.35;4.25;;;;;;;;;;5052915;28;20041;-71
2021/09/16 01:53:58;;;;;;;9.48;4.38;;;;;;;;;;5053246;28;20383;-70
2021/09/16 01:56:24;;;;;;;10.07;4.22;;;;;;;;;;5051251;28;20052;-71
2021/09/16 01:58:52;;;;;;;7.72;4.63;;;;;;;;;;5052609;28;20055;-70
2021/09/16 02:01:18;;;;;;;7.35;4.68;;;;;;;;;;5052929;28;20052;-70
2021/09/16 02:03:45;;;;;;;6.30;4.20;;;;;;;;;;5052857;28;20527;-70
2021/09/16 02:06:12;;;;;;;8.88;4.90;;;;;;;;;;5049960;28;20057;-71
2021/09/16 02:08:39;;;;;;;10.23;4.40;;;;;;;;;;5051586;28;20064;-71
2021/09/16 02:11:05;;;;;;;8.35;5.55;;;;;;;;;;5052657;28;20064;-70
2021/09/16 02:13:32;;;;;;;7.90;4.40;;;;;;;;;;5052977;28;20045;-71
2021/09/16 02:16:00;;;;;;;10.55;5.70;;;;;;;;;;5050959;28;20049;-71
2021/09/16 02:18:27;;;;;;;7.65;4.57;;;;;;;;;;5051693;28;20064;-70
2021/09/16 02:20:53;;;;;;;8.43;4.38;;;;;;;;;;5052748;28;20497;-70
2021/09/16 02:23:20;;;;;;;7.88;4.50;;;;;;;;;;5052656;28;20468;-70
2021/09/16 02:25:46;;;;;;;8.85;4.00;;;;;;;;;;5052060;28;20075;-70
2021/09/16 02:28:13;;;;;;;7.68;4.18;;;;;;;;;;5049765;28;20052;-71
2021/09/16 02:30:39;;;;;;;6.78;4.20;;;;;;;;;;5052423;28;20049;-70
2021/09/16 02:33:07;;;;;;;9.80;5.05;;;;;;;;;;5051915;28;20048;-70
2021/09/16 02:35:34;;;;;;;7.13;3.70;;;;;;;;;;5051966;28;20041;-70
2021/09/16 02:38:01;;;;;;;7.90;4.15;;;;;;;;;;5049474;28;20067;-71
2021/09/16 02:40:28;;;;;;;5.70;3.58;;;;;;;;;;5052058;28;20057;-70
2021/09/16 02:42:55;;;;;;;8.55;3.90;;;;;;;;;;5052275;28;20413;-71
2021/09/16 02:45:21;;;;;;;7.45;4.10;;;;;;;;;;5051505;28;20056;-70
2021/09/16 02:47:48;;;;;;;7.25;4.15;;;;;;;;;;5048727;28;20422;-71
2021/09/16 02:50:16;;;;;;;5.30;3.70;;;;;;;;;;5050996;28;20053;-70
2021/09/16 02:52:42;;;;;;;8.27;3.70;;;;;;;;;;5051992;28;20479;-70
2021/09/16 02:55:10;;;;;;;8.77;3.92;;;;;;;;;;5049556;28;20049;-70
2021/09/16 02:57:36;;;;;;;6.32;3.70;;;;;;;;;;5049224;28;20053;-71
2021/09/16 03:00:03;;;;;;;6.07;4.22;;;;;;;;;;5051800;28;20049;-71
2021/09/16 03:02:30;;;;;;;6.75;4.38;;;;;;;;;;5052046;28;20053;-70
2021/09/16 03:04:56;;;;;;;8.85;3.72;;;;;;;;;;5051533;28;20063;-70
2021/09/16 03:07:24;;;;;;;5.63;3.90;;;;;;;;;;5048839;28;20040;-70
2021/09/16 03:09:50;;;;;;;8.73;4.85;;;;;;;;;;5052139;28;20049;-70
2021/09/16 03:12:18;;;;;;;9.20;5.00;;;;;;;;;;5052115;28;20136;-70
2021/09/16 03:14:44;;;;;;;8.32;4.32;;;;;;;;;;5050460;28;20136;-71
2021/09/16 03:17:11;;;;;;;10.13;5.40;;;;;;;;;;5048379;28;20051;-70
2021/09/16 03:19:37;;;;;;;7.53;4.10;;;;;;;;;;5052038;28;20065;-70
2021/09/16 03:22:04;;;;;;;8.93;5.28;;;;;;;;;;5052088;28;20051;-70
2021/09/16 03:24:32;;;;;;;7.65;4.40;;;;;;;;;;5051737;28;20049;-70
2021/09/16 03:26:59;;;;;;;9.55;4.55;;;;;;;;;;5048585;28;20110;-70
2021/09/16 03:29:25;;;;;;;7.18;4.75;;;;;;;;;;5052076;28;20056;-70
2021/09/16 03:31:52;;;;;;;8.25;4.43;;;;;;;;;;5051697;28;20541;-70
2021/09/16 03:34:19;;;;;;;6.68;4.60;;;;;;;;;;5051658;28;20464;-70
2021/09/16 03:36:46;;;;;;;6.28;3.75;;;;;;;;;;5048513;28;20049;-70
2021/09/16 03:39:13;;;;;;;7.65;4.57;;;;;;;;;;5051467;28;20135;-70
2021/09/16 03:41:41;;;;;;;8.48;4.45;;;;;;;;;;5051421;28;20392;-70
2021/09/16 03:44:07;;;;;;;7.10;4.55;;;;;;;;;;5051758;28;20513;-70
2021/09/16 03:46:34;;;;;;;6.70;3.75;;;;;;;;;;5050569;28;20052;-70
2021/09/16 03:49:00;;;;;;;7.47;4.68;;;;;;;;;;5050394;28;20056;-70
2021/09/16 03:51:27;;;;;;;8.32;4.53;;;;;;;;;;5051164;28;20056;-71
2021/09/16 03:53:53;;;;;;;7.10;4.15;;;;;;;;;;5052230;28;20041;-71
2021/09/16 03:56:20;;;;;;;11.35;5.28;;;;;;;;;;5052174;28;20045;-71
2021/09/16 03:58:47;;;;;;;6.90;4.35;;;;;;;;;;5035139;28;20053;-71
2021/09/16 04:01:14;;;;;;;6.30;4.20;;;;;;;;;;5035022;28;20057;-70
2021/09/16 04:03:40;;;;;;;7.95;3.53;;;;;;;;;;5034712;28;20045;-70
2021/09/16 04:06:07;;;;;;;10.60;4.22;;;;;;;;;;5044764;28;20052;-71
2021/09/16 04:08:33;;;;;;;7.22;4.63;;;;;;;;;;5055181;28;20139;-71
2021/09/16 04:11:00;;;;;;;9.45;4.72;;;;;;;;;;5055136;28;20402;-71
2021/09/16 04:13:26;;;;;;;6.00;4.38;;;;;;;;;;5055063;28;20475;-71
2021/09/16 04:15:54;;;;;;;9.32;4.75;;;;;;;;;;5051906;28;20508;-71
2021/09/16 04:18:21;;;;;;;5.82;3.75;;;;;;;;;;5054293;28;20056;-71
2021/09/16 04:20:47;;;;;;;8.57;4.30;;;;;;;;;;5054946;28;20045;-71
2021/09/16 04:23:14;;;;;;;8.27;4.38;;;;;;;;;;5054821;28;20060;-71
2021/09/16 04:25:40;;;;;;;6.25;4.35;;;;;;;;;;5053410;28;20068;-71
2021/09/16 04:28:06;;;;;;;6.82;4.55;;;;;;;;;;5046255;28;20068;-71
2021/09/16 04:30:33;;;;;;;6.32;4.18;;;;;;;;;;5046132;28;20052;-71
2021/09/16 04:33:01;;;;;;;7.97;4.43;;;;;;;;;;5043989;28;20056;-71
2021/09/16 04:35:27;;;;;;;7.70;4.18;;;;;;;;;;5048391;28;20045;-71
2021/09/16 04:37:54;;;;;;;5.97;4.50;;;;;;;;;;5047564;28;20042;-71
2021/09/16 04:40:20;;;;;;;5.90;3.80;;;;;;;;;;5044128;28;20056;-70
2021/09/16 04:42:47;;;;;;;7.35;4.20;;;;;;;;;;5045289;28;20131;-71
2021/09/16 04:45:13;;;;;;;5.90;4.10;;;;;;;;;;5043803;28;20053;-71
2021/09/16 04:47:40;;;;;;;5.90;3.95;;;;;;;;;;5048145;28;20049;-71
2021/09/16 04:50:09;;;;;;;7.57;4.00;;;;;;;;;;5046764;28;20057;-71
2021/09/16 04:52:36;;;;;;;7.53;4.10;;;;;;;;;;5047217;28;20046;-70
2021/09/16 04:55:03;;;;;;;6.70;4.95;;;;;;;;;;5046789;28;20053;-71
2021/09/16 04:57:29;;;;;;;15.80;4.75;;;;;;;;;;5049342;28;20045;-71
2021/09/16 04:59:56;;;;;;;14.40;4.40;;;;;;;;;;5043194;28;20482;-71
2021/09/16 05:02:22;;;;;;;7.13;4.18;;;;;;;;;;5043540;28;20459;-70
2021/09/16 05:04:49;;;;;;;9.20;4.88;;;;;;;;;;5042504;28;20044;-70
2021/09/16 05:07:17;;;;;;;8.32;4.55;;;;;;;;;;5048800;28;20045;-70
2021/09/16 05:09:43;;;;;;;8.43;4.72;;;;;;;;;;5042992;28;20052;-70
2021/09/16 05:12:10;;;;;;;7.70;5.13;;;;;;;;;;5044339;28;20049;-70
2021/09/16 05:14:36;;;;;;;9.35;4.97;;;;;;;;;;5043020;28;20472;-71
2021/09/16 05:17:03;;;;;;;9.10;4.93;;;;;;;;;;5046549;28;20049;-70
2021/09/16 05:19:29;;;;;;;6.85;4.28;;;;;;;;;;5044734;28;20068;-70
2021/09/16 05:21:56;;;;;;;8.98;5.30;;;;;;;;;;5036461;28;20045;-70
2021/09/16 05:24:24;;;;;;;7.63;3.92;;;;;;;;;;5033343;28;20052;-70
2021/09/16 05:26:50;;;;;;;8.63;3.80;;;;;;;;;;5044312;28;20064;-70
2021/09/16 05:29:16;;;;;;;6.13;4.00;;;;;;;;;;5044669;28;20076;-71
2021/09/16 05:31:43;;;;;;;6.00;3.75;;;;;;;;;;5042182;28;20049;-70
2021/09/16 05:34:09;;;;;;;8.05;4.13;;;;;;;;;;5042820;28;20056;-70
2021/09/16 05:36:36;;;;;;;6.28;4.22;;;;;;;;;;5047788;28;20049;-70
2021/09/16 05:39:03;;;;;;;7.30;4.90;;;;;;;;;;5048768;28;20467;-71
2021/09/16 05:41:31;;;;;;;7.68;4.95;;;;;;;;;;5044123;28;20049;-70
2021/09/16 05:43:57;;;;;;;7.43;5.30;;;;;;;;;;5044380;28;20495;-70
2021/09/16 05:46:24;;;;;;;7.90;4.57;;;;;;;;;;5042369;28;20498;-70
2021/09/16 05:48:50;;;;;;;8.30;4.90;;;;;;;;;;5047302;28;20137;-69
2021/09/16 05:51:17;;;;;;;17.30;4.75;;;;;;;;;;5046233;28;20045;-71
2021/09/16 05:53:43;;;;;;;6.85;4.30;;;;;;;;;;5048611;28;20044;-70
2021/09/16 05:56:10;;;;;;;6.55;4.75;;;;;;;;;;5049649;28;20052;-70
2021/09/16 05:58:38;;;;;;;11.60;5.70;;;;;;;;;;5052011;28;20391;-70
2021/09/16 06:01:04;;;;;;;11.13;4.72;;;;;;;;;;5052680;28;20474;-70
2021/09/16 06:03:31;;;;;;;9.68;4.22;;;;;;;;;;5053652;28;20418;-70
2021/09/16 06:05:57;;;;;;;9.85;5.15;;;;;;;;;;5050751;28;20045;-71
2021/09/16 06:08:24;;;;;;;8.18;5.07;;;;;;;;;;5053209;28;20513;-71
2021/09/16 06:10:50;;;;;;;6.40;4.93;;;;;;;;;;5053208;28;20497;-70
2021/09/16 06:13:17;;;;;;;8.27;5.55;;;;;;;;;;5053879;28;20052;-69
2021/09/16 06:15:44;;;;;;;10.10;4.78;;;;;;;;;;5051445;28;20510;-70
2021/09/16 06:18:11;;;;;;;11.23;5.90;;;;;;;;;;5050449;28;20529;-72
2021/09/16 06:20:37;;;;;;;9.18;4.68;;;;;;;;;;5054730;28;20060;-70
2021/09/16 06:23:04;;;;;;;7.60;4.45;;;;;;;;;;5053283;28;20055;-70
2021/09/16 06:25:31;;;;;;;5.90;4.22;;;;;;;;;;5049828;28;20041;-70
2021/09/16 06:27:58;;;;;;;9.30;5.15;;;;;;;;;;5050065;28;20489;-69
2021/09/16 06:30:25;;;;;;;7.65;5.28;;;;;;;;;;5053173;28;20190;-70
2021/09/16 06:32:53;;;;;;;7.65;5.25;;;;;;;;;;5052443;28;20071;-70
2021/09/16 06:35:20;;;;;;;10.48;5.00;;;;;;;;;;5050228;28;20473;-70
2021/09/16 06:37:47;;;;;;;9.75;4.78;;;;;;;;;;5050263;28;20049;-70
2021/09/16 06:40:14;;;;;;;9.02;5.53;;;;;;;;;;5052505;28;20513;-70
2021/09/16 06:42:41;;;;;;;10.32;5.80;;;;;;;;;;5052970;28;20052;-70
2021/09/16 06:45:09;;;;;;;10.20;5.15;;;;;;;;;;5050509;28;20060;-70
2021/09/16 06:47:36;;;;;;;9.18;5.30;;;;;;;;;;5050209;28;20053;-70
2021/09/16 06:50:04;;;;;;;9.30;6.60;;;;;;;;;;5052656;28;20049;-71
2021/09/16 06:52:31;;;;;;;12.05;5.57;;;;;;;;;;5052479;28;20041;-71
2021/09/16 06:54:58;;;;;;;8.90;5.93;;;;;;;;;;5049410;28;20053;-70
2021/09/16 06:57:24;;;;;;;9.63;5.25;;;;;;;;;;5048974;28;20471;-70
2021/09/16 06:59:51;;;;;;;10.85;6.00;;;;;;;;;;5052672;28;20049;-70
2021/09/16 07:02:17;;;;;;;7.93;5.72;;;;;;;;;;5052078;28;20410;-72
2021/09/16 07:04:44;;;;;;;8.23;5.47;;;;;;;;;;5050996;28;20487;-72
2021/09/16 07:07:12;;;;;;;8.93;5.80;;;;;;;;;;5050705;28;20486;-70
2021/09/16 07:09:38;;;;;;;11.15;7.30;;;;;;;;;;5053077;28;20045;-71
2021/09/16 07:12:05;;;;;;;7.93;5.13;;;;;;;;;;5052469;28;20377;-70
2021/09/16 07:14:32;;;;;;;12.45;6.32;;;;;;;;;;5052675;28;20048;-70
2021/09/16 07:16:58;;;;;;;10.25;6.78;;;;;;;;;;5048814;28;20423;-70
2021/09/16 07:19:25;;;;;;;10.00;6.72;;;;;;;;;;5052326;28;20057;-70
2021/09/16 07:21:52;;;;;;;8.18;6.20;;;;;;;;;;5052070;28;20048;-71
2021/09/16 07:24:20;;;;;;;10.93;6.50;;;;;;;;;;5051898;28;20482;-70
2021/09/16 07:26:50;;;;;;;10.88;5.82;;;;;;;;;;5047890;28;20127;-71
2021/09/16 07:29:16;;;;;;;8.30;6.05;;;;;;;;;;5053659;28;20464;-71
2021/09/16 07:31:43;;;;;;;8.40;5.40;;;;;;;;;;5055653;28;20049;-70
2021/09/16 07:34:10;;;;;;;9.27;5.53;;;;;;;;;;5055516;28;20061;-70
2021/09/16 07:36:36;;;;;;;9.55;6.38;;;;;;;;;;5051216;28;20052;-70
2021/09/16 07:39:03;;;;;;;9.00;5.57;;;;;;;;;;5056314;28;20044;-71
2021/09/16 07:41:31;;;;;;;12.60;6.07;;;;;;;;;;5055724;28;20495;-70
2021/09/16 07:43:58;;;;;;;9.38;6.55;;;;;;;;;;5055621;28;20056;-69
2021/09/16 07:46:24;;;;;;;9.55;6.97;;;;;;;;;;5051387;28;20076;-71
2021/09/16 07:48:50;;;;;;;10.45;5.80;;;;;;;;;;5055458;28;20061;-70
2021/09/16 07:51:17;;;;;;;9.05;5.85;;;;;;;;;;5056478;28;20049;-70
2021/09/16 07:53:43;;;;;;;7.68;5.40;;;;;;;;;;5054340;28;20056;-70
2021/09/16 07:56:11;;;;;;;9.45;5.80;;;;;;;;;;5051340;28;20045;-71
2021/09/16 07:58:38;;;;;;;10.15;7.05;;;;;;;;;;5055708;28;20053;-70
2021/09/16 08:01:05;;;;;;;10.45;6.00;;;;;;;;;;5055752;28;20068;-70
2021/09/16 08:03:32;;;;;;;13.30;6.40;;;;;;;;;;5055153;28;20059;-71
2021/09/16 08:05:58;;;;;;;13.07;7.50;;;;;;;;;;5051385;28;20052;-70
2021/09/16 08:08:25;;;;;;;11.38;6.50;;;;;;;;;;5054677;28;20487;-70
2021/09/16 08:10:51;;;;;;;12.07;7.68;;;;;;;;;;5055871;28;20049;-70
2021/09/16 08:13:18;;;;;;;13.00;6.93;;;;;;;;;;5054979;28;20044;-71
2021/09/16 08:15:46;;;;;;;12.68;8.15;;;;;;;;;;5052647;28;20049;-70
2021/09/16 08:18:12;;;;;;;10.95;7.38;;;;;;;;;;5053517;28;20056;-70
2021/09/16 08:20:42;;;;;;;10.93;7.05;;;;;;;;;;5055283;28;20053;-69
2021/09/16 08:23:08;;;;;;;11.32;7.65;;;;;;;;;;5055094;28;20475;-70
2021/09/16 08:25:35;;;;;;;13.20;7.53;;;;;;;;;;5052799;28;20037;-70
2021/09/16 08:28:01;;;;;;;11.52;7.72;;;;;;;;;;5052089;28;20055;-69
2021/09/16 08:30:28;;;;;;;11.25;8.05;;;;;;;;;;5054577;28;20055;-69
2021/09/16 08:32:56;;;;;;;10.38;6.90;;;;;;;;;;5055004;28;20505;-69
2021/09/16 08:35:22;;;;;;;15.93;7.90;;;;;;;;;;5053575;28;20045;-70
2021/09/16 08:37:49;;;;;;;9.10;5.97;;;;;;;;;;5052045;28;20049;-70
2021/09/16 08:40:16;;;;;;;11.38;6.40;;;;;;;;;;5054512;28;20059;-69
2021/09/16 08:42:43;;;;;;;7.00;5.20;;;;;;;;;;5054371;28;20064;-69
2021/09/16 08:45:14;;;;;;;10.18;4.75;;;;;;;;;;5051726;28;20076;-70
2021/09/16 08:47:41;;;;;;;7.97;4.63;;;;;;;;;;5052117;28;20057;-70
2021/09/16 08:50:10;;;;;;;6.88;4.53;;;;;;;;;;5054489;28;20399;-71
2021/09/16 08:52:39;;;;;;;6.60;4.60;;;;;;;;;;5054604;28;20479;-71
2021/09/16 08:55:06;;;;;;;6.25;4.20;;;;;;;;;;5049447;28;20476;-70
2021/09/16 08:57:36;;;;;;;9.25;4.63;;;;;;;;;;5047524;28;20045;-70
2021/09/16 09:00:05;;;;;;;5.68;3.92;;;;;;;;;;5054318;28;20600;-71
2021/09/16 09:02:31;;;;;;;6.07;3.53;;;;;;;;;;5054133;28;20060;-70
2021/09/16 09:04:58;;;;;;;7.15;3.92;;;;;;;;;;5051469;28;20056;-71
2021/09/16 09:07:37;;;;;;;8.25;3.50;;;;;;;;;;5051832;28;20048;-71
2021/09/16 09:10:04;;;;;;;10.10;3.80;;;;;;;;;;5053708;28;20060;-71
2021/09/16 09:12:34;;;;;;;6.50;3.85;;;;;;;;;;5053920;28;20068;-71
2021/09/16 09:15:01;;;;;;;5.50;3.25;;;;;;;;;;5051427;28;20060;-71
2021/09/16 09:17:33;;;;;;;6.50;4.07;;;;;;;;;;5052387;28;20048;-71
2021/09/16 09:20:08;;;;;;;7.25;4.30;;;;;;;;;;5053574;28;20106;-70
2021/09/16 09:22:37;;;;;;;6.95;4.53;;;;;;;;;;5053789;28;20463;-70
2021/09/16 09:25:06;;;;;;;6.03;3.38;;;;;;;;;;5051032;28;20072;-70
2021/09/16 09:27:35;;;;;;;6.93;4.07;;;;;;;;;;5045209;28;20083;-70
2021/09/16 09:30:11;;;;;;;5.30;3.50;;;;;;;;;;5053253;28;20061;-70
2021/09/16 09:32:52;;;;;;;6.68;3.38;;;;;;;;;;5053314;28;20135;-70
2021/09/16 09:35:31;;;;;;;5.35;4.32;;;;;;;;;;5052151;28;20053;-70
2021/09/16 09:38:01;;;;;;;5.20;3.97;;;;;;;;;;5050853;28;20053;-70
2021/09/16 09:40:29;;;;;;;4.50;3.15;;;;;;;;;;5053567;28;20045;-71
2021/09/16 09:42:56;;;;;;;5.53;3.35;;;;;;;;;;5053392;28;20045;-70
2021/09/16 09:45:22;;;;;;;7.63;3.97;;;;;;;;;;5052667;28;20045;-70
2021/09/16 09:47:49;;;;;;;6.50;3.97;;;;;;;;;;5050867;28;20045;-70
2021/09/16 09:50:19;;;;;;;8.80;3.60;;;;;;;;;;5053415;28;20049;-71
2021/09/16 09:52:46;;;;;;;6.53;4.07;;;;;;;;;;5052764;28;20107;-71
2021/09/16 09:55:15;;;;;;;6.00;3.63;;;;;;;;;;5048768;28;20067;-70
2021/09/16 09:57:41;;;;;;;7.15;4.13;;;;;;;;;;5050945;28;20060;-70
2021/09/16 10:00:09;;;;;;;6.68;3.40;;;;;;;;;;5044989;28;20059;-70
2021/09/16 10:02:50;;;;;;;6.88;3.85;;;;;;;;;;5052876;28;20049;-70
2021/09/16 10:05:21;;;;;;;5.35;3.63;;;;;;;;;;5051412;28;20045;-71
2021/09/16 10:07:49;;;;;;;7.40;3.90;;;;;;;;;;5050487;28;20049;-71
2021/09/16 10:10:18;;;;;;;5.38;3.38;;;;;;;;;;5052722;28;20053;-70
2021/09/16 10:12:46;;;;;;;6.93;3.55;;;;;;;;;;5052947;28;20053;-71
2021/09/16 10:15:17;;;;;;;7.78;3.92;;;;;;;;;;5050249;28;20056;-70
2021/09/16 10:17:45;;;;;;;4.68;3.25;;;;;;;;;;5050270;28;20063;-70
2021/09/16 10:20:14;;;;;;;4.05;2.70;;;;;;;;;;5052691;28;20064;-70
2021/09/16 10:22:42;;;;;;;4.60;2.58;;;;;;;;;;5052650;28;20499;-70
2021/09/16 10:25:09;;;;;;;6.60;3.38;;;;;;;;;;5049573;28;20049;-71
2021/09/16 10:27:39;;;;;;;5.93;3.70;;;;;;;;;;5049964;28;20055;-70
2021/09/16 10:30:42;;;;;;;6.57;3.45;;;;;;;;;;5050813;28;20053;-71
2021/09/16 10:33:13;;;;;;;7.68;4.07;;;;;;;;;;5052110;28;20052;-71
2021/09/16 10:35:42;;;;;;;5.97;3.30;;;;;;;;;;5049816;28;20414;-69
2021/09/16 10:38:27;;;;;;;8.30;3.70;;;;;;;;;;5049731;28;20049;-71
2021/09/16 10:41:15;;;;;;;9.38;3.75;;;;;;;;;;5052291;28;20063;-71
2021/09/16 10:43:44;;;;;;;9.63;4.20;;;;;;;;;;5052326;28;20182;-71
2021/09/16 10:46:36;;;;;;;6.80;3.40;;;;;;;;;;5048510;28;20067;-71
2021/09/16 10:49:33;;;;;;;7.72;3.25;;;;;;;;;;5052758;28;20057;-71
2021/09/16 10:52:02;;;;;;;8.10;3.67;;;;;;;;;;5052025;28;20045;-71
2021/09/16 10:54:38;;;;;;;5.72;3.33;;;;;;;;;;5052292;28;20509;-71
2021/09/16 10:57:06;;;;;;;9.52;3.65;;;;;;;;;;5048363;28;20080;-71
2021/09/16 11:00:12;;;;;;;6.80;3.50;;;;;;;;;;5051868;28;20409;-71
2021/09/16 11:03:05;;;;;;;4.95;2.97;;;;;;;;;;5032160;28;20072;-71
2021/09/16 11:05:58;;;;;;;4.18;2.15;;;;;;;;;;5004816;28;20513;-71
2021/09/16 11:08:58;;;;;;;4.30;1.73;;;;;;;;;;5030534;28;20076;-71
2021/09/16 11:11:25;;;;;;;4.10;1.50;;;;;;;;;;5036296;28;20056;-71
2021/09/16 11:13:53;;;;;;;3.42;1.95;;;;;;;;;;5036125;28;20064;-71
2021/09/16 11:16:25;;;;;;;4.15;2.20;;;;;;;;;;5045451;28;20048;-71
2021/09/16 11:19:00;;;;;;;4.05;1.73;;;;;;;;;;5035946;28;20053;-71
2021/09/16 11:21:28;;;;;;;2.58;1.70;;;;;;;;;;5035780;28;20042;-71
2021/09/16 11:23:55;;;;;;;3.72;1.70;;;;;;;;;;5036215;28;20518;-71
2021/09/16 11:26:23;;;;;;;2.42;1.40;;;;;;;;;;5045055;28;20049;-71
2021/09/16 11:28:57;;;;;;;2.83;1.52;;;;;;;;;;5055890;28;20408;-71
2021/09/16 11:31:25;;;;;;;3.25;1.40;;;;;;;;;;5055915;28;20498;-71
2021/09/16 11:34:07;;;;;;;3.03;1.23;;;;;;;;;;5055905;28;20107;-71
2021/09/16 11:36:34;;;;;;;3.03;1.73;;;;;;;;;;5052642;28;20057;-71
2021/09/16 11:39:13;;;;;;;4.85;2.00;;;;;;;;;;5055786;28;20067;-71
2021/09/16 11:41:39;;;;;;;4.38;2.05;;;;;;;;;;5055591;28;20049;-71
2021/09/16 11:44:08;;;;;;;4.03;2.03;;;;;;;;;;5055460;28;20056;-71
2021/09/16 11:46:36;;;;;;;5.65;3.35;;;;;;;;;;5050214;28;20048;-71
2021/09/16 11:49:03;;;;;;;4.25;2.03;;;;;;;;;;5055959;28;20049;-72
2021/09/16 11:51:30;;;;;;;4.00;2.28;;;;;;;;;;5055995;28;20045;-70
2021/09/16 11:54:10;;;;;;;7.65;2.60;;;;;;;;;;5055364;28;20064;-70
2021/09/16 11:56:36;;;;;;;4.55;2.60;;;;;;;;;;5047680;28;20466;-70
2021/09/16 11:59:08;;;;;;;5.90;2.97;;;;;;;;;;5053806;28;20505;-70
2021/09/16 12:01:36;;;;;;;4.70;2.50;;;;;;;;;;5055133;28;20407;-70
2021/09/16 12:04:03;;;;;;;3.88;2.40;;;;;;;;;;5055131;28;20406;-70
2021/09/16 12:06:35;;;;;;;5.40;2.85;;;;;;;;;;5050378;28;20077;-70
2021/09/16 12:09:02;;;;;;;5.38;2.67;;;;;;;;;;5055150;28;20049;-70
2021/09/16 12:11:30;;;;;;;5.47;2.58;;;;;;;;;;5055135;28;20106;-70
2021/09/16 12:14:01;;;;;;;4.93;2.75;;;;;;;;;;5054708;28;20052;-70
2021/09/16 12:16:28;;;;;;;6.22;2.60;;;;;;;;;;5050171;28;20057;-70
2021/09/16 12:18:58;;;;;;;5.10;2.78;;;;;;;;;;5054928;28;20048;-69
2021/09/16 12:21:28;;;;;;;4.93;2.58;;;;;;;;;;5054964;28;20048;-69
2021/09/16 12:23:56;;;;;;;5.88;2.00;;;;;;;;;;5054738;28;20098;-70
2021/09/16 12:26:24;;;;;;;2.88;1.40;;;;;;;;;;5049874;28;20406;-70
2021/09/16 12:28:57;;;;;;;1.73;1.20;;;;;;;;;;5054673;28;20055;-69
2021/09/16 12:31:26;;;;;;;5.60;0.98;;;;;;;;;;5054864;28;20048;-70
2021/09/16 12:33:57;;;;;;;3.00;0.85;;;;;;;;;;5054546;28;20053;-69
2021/09/16 12:36:25;;;;;;;2.53;0.90;;;;;;;;;;5050580;28;20052;-70
2021/09/16 12:38:56;;;;;;;1.67;0.88;;;;;;;;;;5054455;28;20045;-70
2021/09/16 12:41:34;;;;;;;2.15;0.90;;;;;;;;;;5054862;28;20057;-70
2021/09/16 12:44:03;;;;;;;3.97;0.93;;;;;;;;;;5054424;28;20055;-70
2021/09/16 12:46:42;;;;;;;3.97;1.00;;;;;;;;;;5050899;28;20048;-69
2021/09/16 12:49:22;;;;;;;6.65;1.50;;;;;;;;;;5054628;28;20056;-69
2021/09/16 12:51:54;;;;;;;1.73;0.93;;;;;;;;;;5054407;28;20053;-69
2021/09/16 12:54:21;;;;;;;3.22;1.20;;;;;;;;;;5054272;28;20052;-69
2021/09/16 12:56:49;;;;;;;4.47;1.48;;;;;;;;;;5049368;28;20375;-70
2021/09/16 12:59:19;;;;;;;5.75;1.42;;;;;;;;;;5052495;28;20048;-70
2021/09/16 13:01:46;;;;;;;4.13;1.48;;;;;;;;;;5053957;28;20049;-70
2021/09/16 13:04:14;;;;;;;2.97;1.25;;;;;;;;;;5054019;28;20060;-72
2021/09/16 13:06:41;;;;;;;2.83;1.75;;;;;;;;;;5050024;28;20510;-70
2021/09/16 13:09:07;;;;;;;2.90;1.80;;;;;;;;;;5053989;28;20053;-70
2021/09/16 13:11:34;;;;;;;3.25;1.83;;;;;;;;;;5053971;28;20528;-70
2021/09/16 13:14:08;;;;;;;3.10;1.70;;;;;;;;;;5053810;28;20067;-70
2021/09/16 13:16:35;;;;;;;3.95;1.67;;;;;;;;;;5048617;28;20045;-70
2021/09/16 13:19:01;;;;;;;3.67;1.40;;;;;;;;;;5053971;28;20075;-70
2021/09/16 13:21:29;;;;;;;5.47;1.60;;;;;;;;;;5053971;28;20072;-70
2021/09/16 13:23:56;;;;;;;7.43;1.90;;;;;;;;;;5053728;28;20045;-70
2021/09/16 13:26:24;;;;;;;7.85;2.10;;;;;;;;;;5049129;28;20485;-70
2021/09/16 13:28:51;;;;;;;11.43;2.35;;;;;;;;;;5053913;28;20053;-70
2021/09/16 13:31:17;;;;;;;8.48;2.35;;;;;;;;;;5053548;28;20135;-70
2021/09/16 13:33:44;;;;;;;5.85;2.22;;;;;;;;;;5053470;28;20057;-70
2021/09/16 13:36:10;;;;;;;3.90;2.15;;;;;;;;;;5048261;28;20060;-70
2021/09/16 13:38:38;;;;;;;3.22;1.95;;;;;;;;;;5053391;28;20419;-69
2021/09/16 13:41:06;;;;;;;8.48;2.78;;;;;;;;;;5053578;28;20059;-70
2021/09/16 13:43:33;;;;;;;5.63;2.45;;;;;;;;;;5053685;28;20053;-70
2021/09/16 13:46:00;;;;;;;4.85;2.92;;;;;;;;;;5049341;28;20048;-70
2021/09/16 13:48:26;;;;;;;5.70;2.58;;;;;;;;;;5052687;28;20049;-70
2021/09/16 13:50:53;;;;;;;6.00;2.88;;;;;;;;;;5052726;28;20063;-70
2021/09/16 13:53:19;;;;;;;4.60;2.30;;;;;;;;;;5053225;28;20418;-70
2021/09/16 13:55:47;;;;;;;11.15;2.80;;;;;;;;;;5052802;28;20405;-72
2021/09/16 13:58:14;;;;;;;3.97;2.38;;;;;;;;;;5050239;28;20056;-70
2021/09/16 14:00:40;;;;;;;9.27;2.50;;;;;;;;;;5051408;28;20049;-71
2021/09/16 14:03:07;;;;;;;4.85;2.30;;;;;;;;;;5044362;28;20123;-71
2021/09/16 14:05:33;;;;;;;6.32;2.45;;;;;;;;;;5050436;28;20049;-70
2021/09/16 14:08:00;;;;;;;5.45;2.83;;;;;;;;;;5050498;28;20087;-70
2021/09/16 14:10:26;;;;;;;4.40;2.60;;;;;;;;;;5052929;28;20053;-71
2021/09/16 14:12:54;;;;;;;6.70;2.97;;;;;;;;;;5053154;28;20052;-70
2021/09/16 14:15:21;;;;;;;6.07;2.75;;;;;;;;;;5050500;28;20048;-71
2021/09/16 14:17:47;;;;;;;4.88;2.80;;;;;;;;;;5050615;28;20197;-70
2021/09/16 14:20:14;;;;;;;5.97;2.35;;;;;;;;;;5052395;28;20056;-71
2021/09/16 14:22:41;;;;;;;4.22;2.42;;;;;;;;;;5052836;28;20411;-73
2021/09/16 14:25:08;;;;;;;8.43;1.67;;;;;;;;;;5050095;28;20072;-71
2021/09/16 14:27:34;;;;;;;7.13;2.10;;;;;;;;;;5051823;28;20041;-70
2021/09/16 14:30:03;;;;;;;4.07;1.67;;;;;;;;;;5052198;28;20052;-70
2021/09/16 14:32:29;;;;;;;7.85;2.92;;;;;;;;;;5052398;28;20044;-70
2021/09/16 14:34:55;;;;;;;5.30;2.63;;;;;;;;;;5049988;28;20060;-71
2021/09/16 14:37:22;;;;;;;4.53;3.10;;;;;;;;;;5052138;28;20475;-71
2021/09/16 14:39:49;;;;;;;5.03;2.95;;;;;;;;;;5052378;28;20045;-71
2021/09/16 14:42:15;;;;;;;4.60;3.15;;;;;;;;;;5052753;28;20059;-73
2021/09/16 14:44:42;;;;;;;6.05;3.15;;;;;;;;;;5051971;28;20052;-70
2021/09/16 14:47:11;;;;;;;6.32;3.40;;;;;;;;;;5047756;28;20051;-71